avis per tempestes more information blitzortung!


avis per Pluja more information rain snow radar


Visita la nostra xarxa de llocs de meteo:

Template documentation
and downloads

And another site



Thunderstorms From: 20-07-2018 17:00 Until: 21-07-2018 01:59 warning for: Thunderstorms Level: Yellow info button
Rain From: 20-07-2018 17:00 Until: 21-07-2018 01:59 warning for: Rain Level: Yellow info button

Pagina Historial Weather Underground text

Diari Resum Marc 2, 2016 Unitats:  Mètric    Imperial   Tant
« Previous Dia
SegĂźent Dia »
Diari Setmana Mensual Anual Personalitzada
  Maxima: Minima: Media:
Temperatura: -17.8 °C -14.2 °C -9.3 °C
Punt de rosada: -17.8 °C -19.2 °C -16.5 °C
Humitat: Humidity % 33 % 42 %
Wind Speed: 0 km/h 0 km/h 17.7 km/h
RĂ fegues de vent: 0 km/h - -
Vent:- - SW
Pression baro: 0 hPa 34198.6 hPa -
Precipitacions: 0 mm    
Historical Graphs
 
 
Dades de taula per Marc 2, 2016
Temps Temperatura Punt de rosada Pression baro Vent Wind Speed RĂ fegues de vent Humitat Rainfall Rate (Hourly)
-17.8 °C -17.8 °C 0 hPa Calm     Humidity % 0 mm
00:00 -13.6 °C -18.9 °C 34533.8 hPa NE 7.7 km/h 10.3 km/h 51 % 0 mm
00:20 -13.8 °C -19.1 °C 34496.6 hPa East 5.1 km/h 7.7 km/h 51 % 0 mm
00:30 -13.9 °C -19 °C 34496.6 hPa Calm   5.1 km/h 52 % 0 mm
00:50 -14 °C -19.1 °C 34533.8 hPa Calm   7.7 km/h 52 % 0 mm
01:00 -14.1 °C -19.2 °C 34533.8 hPa NNE 5.1 km/h 7.7 km/h 52 % 0 mm
01:20 -14.1 °C -19.2 °C 34496.6 hPa SE 2.6 km/h 7.7 km/h 52 % 0 mm
01:50 -14.2 °C -19 °C 34496.6 hPa Calm   2.6 km/h 54 % 0 mm
02:00 -14 °C -18.8 °C 34496.6 hPa SSW 2.6 km/h 7.7 km/h 54 % 0 mm
02:10 -13.9 °C -18.7 °C 34533.8 hPa NE 2.6 km/h 10.3 km/h 54 % 0 mm
02:20 -13.8 °C -18.7 °C 34533.8 hPa Calm   2.6 km/h 54 % 0 mm
02:30 -13.7 °C -18.6 °C 34533.8 hPa NE 2.6 km/h 7.7 km/h 54 % 0 mm
02:40 -13.6 °C -18.6 °C 34533.8 hPa NE 2.6 km/h 7.7 km/h 53 % 0 mm
02:50 -13.6 °C -18.4 °C 34533.8 hPa Calm   5.1 km/h 54 % 0 mm
03:00 -13.5 °C -18.4 °C 34533.8 hPa Calm   5.1 km/h 54 % 0 mm
03:10 -13.3 °C -18.2 °C 34533.8 hPa NNE 2.6 km/h 5.1 km/h 54 % 0 mm
03:20 -13.2 °C -18.1 °C 34567.7 hPa NE 2.6 km/h 5.1 km/h 54 % 0 mm
03:30 -13 °C -18 °C 34567.7 hPa NNE 2.6 km/h 10.3 km/h 53 % 0 mm
03:40 -12.8 °C -17.9 °C 34567.7 hPa NE 2.6 km/h 10.3 km/h 53 % 0 mm
03:50 -12.7 °C -17.7 °C 34533.8 hPa NE 2.6 km/h 12.9 km/h 53 % 0 mm
04:00 -12.4 °C -17.7 °C 34533.8 hPa NNE 5.1 km/h 10.3 km/h 52 % 0 mm
04:10 -12.2 °C -17.4 °C 34533.8 hPa NNE 7.7 km/h 12.9 km/h 52 % 0 mm
04:20 -12.1 °C -17.5 °C 34496.6 hPa NNE 5.1 km/h 20.8 km/h 51 % 0 mm
04:30 -11.9 °C -17.3 °C 34496.6 hPa NNE 5.1 km/h 7.7 km/h 51 % 0 mm
04:40 -11.6 °C -17.1 °C 34533.8 hPa NE 5.1 km/h 10.3 km/h 51 % 0 mm
04:50 -11.4 °C -16.9 °C 34533.8 hPa NE 7.7 km/h 12.9 km/h 51 % 0 mm
05:00 -11.2 °C -16.8 °C 34533.8 hPa NE 7.7 km/h 10.3 km/h 50 % 0 mm
05:20 -10.8 °C -16.4 °C 34496.6 hPa NE 2.6 km/h 10.3 km/h 50 % 0 mm
05:30 -10.6 °C -16.2 °C 34496.6 hPa NNE 7.7 km/h 10.3 km/h 50 % 0 mm
05:40 -10.3 °C -16.2 °C 34496.6 hPa ENE 2.6 km/h 7.7 km/h 49 % 0 mm
05:50 -9.8 °C -15.7 °C 34462.7 hPa East 7.7 km/h 12.9 km/h 49 % 0 mm
11:55 -9.8 °C -15.7 °C 34462.7 hPa SW 3.1 km/h 5.1 km/h 49 % 0 mm
12:00 -9.3 °C -15.2 °C 34462.7 hPa West 15.3 km/h 15.3 km/h 49 % 0 mm
12:05 -9.1 °C -15.2 °C 34462.7 hPa WSW 16.1 km/h 16.1 km/h 48 % 0 mm
12:10 -8.9 °C -15.2 °C 34462.7 hPa WSW 15 km/h 15 km/h 47 % 0 mm
12:15 -8.7 °C -15.1 °C 34462.7 hPa ENE 9 km/h 9 km/h 47 % 0 mm
12:20 -8.7 °C -15.2 °C 34462.7 hPa WSW 11.9 km/h 12.2 km/h 46 % 0 mm
12:25 -8.6 °C -15.1 °C 34462.7 hPa NW 22 km/h 22 km/h 46 % 0 mm
12:30 -8.4 °C -14.9 °C 34462.7 hPa West 11.9 km/h 11.9 km/h 46 % 0 mm
12:35 -8.4 °C -14.9 °C 34462.7 hPa SSE 11.9 km/h 11.9 km/h 46 % 0 mm
12:40 -8.3 °C -14.9 °C 34462.7 hPa WNW 9.8 km/h 9.8 km/h 45 % 0 mm
12:45 -8.2 °C -14.9 °C 34428.8 hPa West 15.3 km/h 15.3 km/h 45 % 0 mm
12:50 -8.2 °C -15.1 °C 34428.8 hPa WNW 17.9 km/h 17.9 km/h 44 % 0 mm
12:55 -8.2 °C -15.1 °C 34428.8 hPa WNW 15 km/h 15 km/h 44 % 0 mm
13:00 -8.1 °C -14.8 °C 34462.7 hPa NNE 15 km/h 15 km/h 45 % 0 mm
13:05 -7.9 °C -14.6 °C 34462.7 hPa NW 9 km/h 9 km/h 45 % 0 mm
13:10 -7.7 °C -14.5 °C 34462.7 hPa WSW 9.3 km/h 9.3 km/h 45 % 0 mm
13:15 -7.7 °C -14.6 °C 34395 hPa SSW 9 km/h 9 km/h 44 % 0 mm
13:20 -7.8 °C -14.8 °C 34395 hPa SW 20.9 km/h 20.9 km/h 44 % 0 mm
13:25 -7.8 °C -14.9 °C 34395 hPa WSW 15 km/h 15 km/h 43 % 0 mm
13:30 -7.8 °C -14.9 °C 34395 hPa West 22.5 km/h 22.5 km/h 43 % 0 mm
13:35 -7.7 °C -14.8 °C 34395 hPa WNW 17.9 km/h 17.9 km/h 43 % 0 mm
13:40 -7.4 °C -14.4 °C 34395 hPa WSW 10.3 km/h 10.3 km/h 44 % 0 mm
13:45 -7.4 °C -14.3 °C 34395 hPa WSW 15.3 km/h 15.3 km/h 44 % 0 mm
13:50 -7.4 °C -14.3 °C 34395 hPa WSW 6.8 km/h 6.8 km/h 44 % 0 mm
13:55 -7.3 °C -14.3 °C 34395 hPa West 9.8 km/h 11.1 km/h 44 % 0 mm
14:00 -7.1 °C -14.2 °C 34395 hPa WSW 8.5 km/h 8.5 km/h 43 % 0 mm
14:05 -6.9 °C -14.1 °C 34395 hPa SW 14 km/h 14 km/h 43 % 0 mm
14:10 -7.1 °C -14.2 °C 34395 hPa SW 17.9 km/h 17.9 km/h 43 % 0 mm
14:15 -7.1 °C -14.2 °C 34395 hPa WSW 22.5 km/h 22.5 km/h 43 % 0 mm
14:20 -7.1 °C -14.1 °C 34395 hPa West 12.7 km/h 12.7 km/h 44 % 0 mm
14:25 -7.1 °C -14.1 °C 34395 hPa WSW 23.8 km/h 23.8 km/h 44 % 0 mm
14:30 -6.9 °C -13.9 °C 34361.1 hPa East 17.9 km/h 17.9 km/h 44 % 0 mm
14:35 -6.7 °C -13.7 °C 34361.1 hPa SSW 25.9 km/h 25.9 km/h 44 % 0 mm
14:40 -6.7 °C -13.7 °C 34361.1 hPa WSW 15 km/h 15 km/h 44 % 0 mm
14:45 -6.5 °C -13.4 °C 34327.3 hPa West 15 km/h 15 km/h 45 % 0 mm
14:50 -6.6 °C -13.4 °C 34327.3 hPa WSW 15 km/h 15 km/h 45 % 0 mm
14:55 -6.5 °C -13.4 °C 34327.3 hPa West 12.7 km/h 12.7 km/h 45 % 0 mm
15:00 -6.5 °C -13.5 °C 34327.3 hPa West 29.8 km/h 29.8 km/h 44 % 0 mm
15:05 -6.6 °C -13.7 °C 34327.3 hPa West 22.5 km/h 22.5 km/h 44 % 0 mm
15:10 -6.5 °C -13.5 °C 34327.3 hPa WNW 20.3 km/h 20.3 km/h 44 % 0 mm
15:15 -6.4 °C -13.5 °C 34327.3 hPa WNW 17.9 km/h 17.9 km/h 44 % 0 mm
15:20 -6.6 °C -13.6 °C 34327.3 hPa WSW 32.8 km/h 32.8 km/h 44 % 0 mm
15:25 -6.6 °C -13.7 °C 34327.3 hPa SSW 26.9 km/h 26.9 km/h 44 % 0 mm
15:30 -6.6 °C -13.7 °C 34327.3 hPa West 32.3 km/h 32.3 km/h 44 % 0 mm
15:35 -6.7 °C -13.7 °C 34327.3 hPa South 23.8 km/h 23.8 km/h 44 % 0 mm
15:40 -6.9 °C -13.9 °C 34327.3 hPa WSW 20.9 km/h 20.9 km/h 44 % 0 mm
15:45 -6.9 °C -13.9 °C 34327.3 hPa WSW 15.6 km/h 15.6 km/h 44 % 0 mm
15:50 -7 °C -14 °C 34327.3 hPa WSW 32.8 km/h 32.8 km/h 44 % 0 mm
16:00 -7.1 °C -14.1 °C 34293.4 hPa WSW 26.4 km/h 26.4 km/h 44 % 0 mm
16:05 -7.2 °C -14.1 °C 34293.4 hPa WNW 17.9 km/h 17.9 km/h 44 % 0 mm
16:10 -7.1 °C -14.1 °C 34293.4 hPa West 23.8 km/h 23.8 km/h 44 % 0 mm
16:15 -7.1 °C -14.2 °C 34293.4 hPa WSW 20.9 km/h 20.9 km/h 43 % 0 mm
16:20 -6.9 °C -14.1 °C 34293.4 hPa WSW 17.9 km/h 17.9 km/h 43 % 0 mm
16:25 -6.9 °C -14.1 °C 34293.4 hPa WSW 17.9 km/h 19.2 km/h 43 % 0 mm
16:30 -6.9 °C -14.1 °C 34256.2 hPa SW 29.8 km/h 29.8 km/h 43 % 0 mm
16:35 -6.9 °C -14.1 °C 34256.2 hPa NNE 15 km/h 15 km/h 43 % 0 mm
16:40 -6.9 °C -14.3 °C 34256.2 hPa South 23.8 km/h 23.8 km/h 42 % 0 mm
16:45 -6.9 °C -14.3 °C 34256.2 hPa West 15 km/h 15 km/h 42 % 0 mm
16:50 -6.9 °C -14.3 °C 34256.2 hPa West 20.9 km/h 20.9 km/h 42 % 0 mm
16:55 -7 °C -14.3 °C 34256.2 hPa West 20.9 km/h 20.9 km/h 42 % 0 mm
17:00 -7.2 °C -14.5 °C 34256.2 hPa WSW 50.7 km/h 50.7 km/h 42 % 0 mm
17:05 -7.2 °C -14.6 °C 34256.2 hPa WSW 32.8 km/h 32.8 km/h 42 % 0 mm
17:10 -7.2 °C -14.6 °C 34256.2 hPa NNE 9 km/h 9 km/h 42 % 0 mm
17:15 -7.2 °C -14.6 °C 34256.2 hPa SW 25.4 km/h 25.4 km/h 42 % 0 mm
17:20 -7.3 °C -14.6 °C 34256.2 hPa SW 11.9 km/h 16.1 km/h 42 % 0 mm
17:25 -7.3 °C -14.8 °C 34256.2 hPa WNW 17.4 km/h 17.4 km/h 41 % 0 mm
17:30 -7.4 °C -15.1 °C 34222.3 hPa WSW 32.8 km/h 32.8 km/h 40 % 0 mm
17:35 -7.4 °C -15.2 °C 34222.3 hPa West 23.8 km/h 23.8 km/h 40 % 0 mm
17:40 -7.5 °C -15.4 °C 34222.3 hPa WNW 20.9 km/h 25.9 km/h 39 % 0 mm
17:45 -7.5 °C -15.4 °C 34222.3 hPa WSW 23.8 km/h 23.8 km/h 39 % 0 mm
17:50 -7.6 °C -15.4 °C 34222.3 hPa WSW 15.6 km/h 15.6 km/h 39 % 0 mm
17:55 -7.6 °C -15.7 °C 34222.3 hPa NW 17.9 km/h 17.9 km/h 38 % 0 mm
18:00 -7.7 °C -15.9 °C 34222.3 hPa WNW 20.9 km/h 20.9 km/h 37 % 0 mm
18:10 -7.9 °C -15.9 °C 34222.3 hPa WSW 26.4 km/h 26.4 km/h 38 % 0 mm
18:20 -8 °C -16.7 °C 34222.3 hPa WSW 26.9 km/h 28.2 km/h 35 % 0 mm
18:25 -8.1 °C -16.8 °C 34222.3 hPa WSW 17.9 km/h 28.2 km/h 35 % 0 mm
18:30 -8.2 °C -17.1 °C 34222.3 hPa WSW 17.9 km/h 28.2 km/h 34 % 0 mm
18:35 -8.3 °C -17.4 °C 34222.3 hPa WSW 17.9 km/h 28.2 km/h 33 % 0 mm
18:40 -8.3 °C -17.4 °C 34222.3 hPa WSW 17.9 km/h 28.2 km/h 33 % 0 mm
18:45 -8.4 °C -17.5 °C 34198.6 hPa WSW 17.9 km/h 28.2 km/h 33 % 0 mm
18:50 -8.5 °C -17.4 °C 34198.6 hPa WSW 17.9 km/h 28.2 km/h 34 % 0 mm
18:55 -8.6 °C -17.7 °C 34198.6 hPa WSW 17.9 km/h 28.2 km/h 33 % 0 mm
19:00 -8.6 °C -17.7 °C 34222.3 hPa WSW 17.9 km/h 28.2 km/h 33 % 0 mm
19:05 -8.6 °C -17.7 °C 34222.3 hPa WSW 17.9 km/h 28.2 km/h 33 % 0 mm
19:10 -8.7 °C -17.7 °C 34222.3 hPa WSW 17.9 km/h 28.2 km/h 33 % 0 mm
19:15 -8.8 °C -17.8 °C 34256.2 hPa NW 32.8 km/h 32.8 km/h 33 % 0 mm
19:20 -8.8 °C -17.9 °C 34256.2 hPa WSW 16.1 km/h 19.6 km/h 33 % 0 mm
19:25 -8.8 °C -17.9 °C 34256.2 hPa WSW 53.6 km/h 53.6 km/h 33 % 0 mm
19:30 -8.9 °C -17.7 °C 34256.2 hPa WSW 53.6 km/h 53.6 km/h 34 % 0 mm
19:35 -9 °C -17.8 °C 34256.2 hPa WSW 53.6 km/h 53.6 km/h 34 % 0 mm
19:40 -9.1 °C -17.8 °C 34256.2 hPa WSW 53.6 km/h 53.6 km/h 34 % 0 mm
19:45 -9.1 °C -17.8 °C 34293.4 hPa WSW 53.6 km/h 53.6 km/h 34 % 0 mm
19:50 -9.1 °C -17.8 °C 34293.4 hPa WSW 53.6 km/h 53.6 km/h 34 % 0 mm
19:55 -9.1 °C -18.1 °C 34293.4 hPa WSW 53.6 km/h 53.6 km/h 33 % 0 mm
20:00 -9.1 °C -18.1 °C 34256.2 hPa WSW 53.6 km/h 53.6 km/h 33 % 0 mm
20:05 -9.1 °C -18.1 °C 34256.2 hPa WSW 53.6 km/h 53.6 km/h 33 % 0 mm
20:10 -9.1 °C -18.1 °C 34256.2 hPa WSW 53.6 km/h 53.6 km/h 33 % 0 mm
20:15 -9.2 °C -18.2 °C 34256.2 hPa WSW 53.6 km/h 53.6 km/h 33 % 0 mm
20:20 -9.2 °C -18.2 °C 34256.2 hPa WSW 53.6 km/h 53.6 km/h 33 % 0 mm
20:25 -9.3 °C -18.3 °C 34256.2 hPa WSW 53.6 km/h 53.6 km/h 33 % 0 mm
20:30 -9.3 °C -18.3 °C 34293.4 hPa West 9.3 km/h 15.6 km/h 33 % 0 mm
20:35 -9.3 °C -18.3 °C 34293.4 hPa West 9.3 km/h 15.6 km/h 33 % 0 mm
20:40 -9.4 °C -18.4 °C 34293.4 hPa West 9 km/h 9 km/h 33 % 0 mm
20:45 -9.5 °C -18.5 °C 34293.4 hPa WSW 15 km/h 15 km/h 33 % 0 mm
20:50 -9.6 °C -18.5 °C 34293.4 hPa WSW 15 km/h 15 km/h 33 % 0 mm
20:55 -9.6 °C -18.6 °C 34293.4 hPa WSW 15 km/h 15 km/h 33 % 0 mm
21:00 -9.7 °C -18.4 °C 34293.4 hPa WSW 15 km/h 15 km/h 34 % 0 mm
21:05 -9.8 °C -18.5 °C 34293.4 hPa WSW 16.1 km/h 16.1 km/h 34 % 0 mm
21:10 -9.8 °C -18.6 °C 34293.4 hPa WSW 16.1 km/h 16.1 km/h 34 % 0 mm
21:15 -9.9 °C -18.6 °C 34293.4 hPa West 22 km/h 22 km/h 34 % 0 mm
21:20 -9.9 °C -18.4 °C 34293.4 hPa West 22 km/h 22 km/h 35 % 0 mm
21:25 -10 °C -18.4 °C 34293.4 hPa West 22 km/h 22 km/h 35 % 0 mm
21:30 -10.1 °C -18.6 °C 34327.3 hPa West 22 km/h 22 km/h 35 % 0 mm
21:35 -10.2 °C -18.4 °C 34327.3 hPa West 22 km/h 22 km/h 36 % 0 mm
21:40 -10.2 °C -18.4 °C 34327.3 hPa West 22 km/h 22 km/h 36 % 0 mm
21:45 -10.3 °C -18.5 °C 34293.4 hPa West 15.6 km/h 23.3 km/h 36 % 0 mm
21:50 -10.3 °C -18.6 °C 34293.4 hPa West 15.6 km/h 23.3 km/h 36 % 0 mm
21:55 -10.4 °C -18.4 °C 34293.4 hPa West 22 km/h 22 km/h 37 % 0 mm
22:00 -10.5 °C -18.5 °C 34327.3 hPa West 15.6 km/h 23.3 km/h 37 % 0 mm
22:05 -10.6 °C -18.3 °C 34327.3 hPa West 15.6 km/h 23.3 km/h 38 % 0 mm
22:10 -10.6 °C -18.4 °C 34327.3 hPa West 20.9 km/h 20.9 km/h 38 % 0 mm
22:15 -10.7 °C -18.5 °C 34327.3 hPa West 12.9 km/h 12.9 km/h 38 % 0 mm
22:20 -10.7 °C -18.5 °C 34327.3 hPa West 12.9 km/h 12.9 km/h 38 % 0 mm
22:25 -10.8 °C -18.6 °C 34327.3 hPa West 12.9 km/h 12.9 km/h 38 % 0 mm
22:30 -10.9 °C -18.6 °C 34327.3 hPa West 12.9 km/h 12.9 km/h 38 % 0 mm
22:35 -10.9 °C -18.4 °C 34327.3 hPa West 12.9 km/h 12.9 km/h 39 % 0 mm
22:40 -10.9 °C -18.5 °C 34327.3 hPa West 12.9 km/h 12.9 km/h 39 % 0 mm
22:45 -11 °C -18.6 °C 34361.1 hPa West 12.9 km/h 12.9 km/h 39 % 0 mm
22:50 -11.1 °C -18.6 °C 34361.1 hPa West 12.9 km/h 12.9 km/h 39 % 0 mm
22:55 -11.1 °C -18.4 °C 34361.1 hPa West 12.9 km/h 12.9 km/h 40 % 0 mm
23:00 -11.1 °C -18.4 °C 34327.3 hPa West 12.9 km/h 12.9 km/h 40 % 0 mm
23:05 -11.2 °C -18.5 °C 34327.3 hPa West 7.6 km/h 10.3 km/h 40 % 0 mm
23:10 -11.2 °C -18.6 °C 34327.3 hPa West 7.6 km/h 10.3 km/h 40 % 0 mm
23:15 -11.3 °C -18.6 °C 34361.1 hPa West 7.6 km/h 10.3 km/h 40 % 0 mm
23:20 -11.3 °C -18.4 °C 34361.1 hPa West 7.6 km/h 10.3 km/h 41 % 0 mm
23:25 -11.4 °C -18.5 °C 34361.1 hPa West 7.6 km/h 10.3 km/h 41 % 0 mm
23:30 -11.4 °C -18.6 °C 34361.1 hPa West 7.6 km/h 10.3 km/h 41 % 0 mm
23:35 -11.5 °C -18.6 °C 34361.1 hPa SW 6 km/h 6 km/h 41 % 0 mm
Meteo Sesrovires
Elogis d' Weather Underground - 2 mb

Guio original per  Jim McMurry - jmcmurry@mwt.net Adaptat per a la plantilla per  Wim van der Kuil - Leuven-Template.eu

Trobareu la nostra informacio del temps tambe a:

Weather Underground

AWEKAS